sensor_id;sensor_type;location;lat;lon;timestamp;pressure;altitude;pressure_sealevel;temperature;humidity
54918;BME280;40818;50.562;7.454;2022-12-18T00:04:18;98811.09;;;-8.94;100.00
54918;BME280;40818;50.562;7.454;2022-12-18T00:14:23;98810.59;;;-9.11;100.00
54918;BME280;40818;50.562;7.454;2022-12-18T00:24:29;98822.03;;;-9.48;100.00
54918;BME280;40818;50.562;7.454;2022-12-18T00:34:32;98816.38;;;-9.41;100.00
54918;BME280;40818;50.562;7.454;2022-12-18T00:44:38;98806.59;;;-9.59;100.00
54918;BME280;40818;50.562;7.454;2022-12-18T00:54:42;98817.69;;;-9.52;100.00
54918;BME280;40818;50.562;7.454;2022-12-18T01:04:48;98828.22;;;-9.64;100.00
54918;BME280;40818;50.562;7.454;2022-12-18T01:14:53;98813.91;;;-9.67;100.00
54918;BME280;40818;50.562;7.454;2022-12-18T01:25:00;98813.50;;;-9.79;100.00
54918;BME280;40818;50.562;7.454;2022-12-18T01:35:04;98805.25;;;-9.75;100.00
54918;BME280;40818;50.562;7.454;2022-12-18T01:45:27;98820.53;;;-9.69;100.00
54918;BME280;40818;50.562;7.454;2022-12-18T01:55:35;98813.25;;;-9.61;100.00
54918;BME280;40818;50.562;7.454;2022-12-18T02:05:45;98811.56;;;-9.61;100.00
54918;BME280;40818;50.562;7.454;2022-12-18T02:15:58;98806.09;;;-9.49;100.00
54918;BME280;40818;50.562;7.454;2022-12-18T02:26:15;98790.84;;;-9.53;100.00
54918;BME280;40818;50.562;7.454;2022-12-18T02:36:21;98795.50;;;-9.66;100.00
54918;BME280;40818;50.562;7.454;2022-12-18T02:46:36;98794.53;;;-9.69;100.00
54918;BME280;40818;50.562;7.454;2022-12-18T02:56:49;98791.06;;;-9.73;100.00
54918;BME280;40818;50.562;7.454;2022-12-18T03:07:01;98789.16;;;-9.80;100.00
54918;BME280;40818;50.562;7.454;2022-12-18T03:17:13;98776.31;;;-9.62;100.00
54918;BME280;40818;50.562;7.454;2022-12-18T03:27:23;98779.47;;;-9.69;100.00
54918;BME280;40818;50.562;7.454;2022-12-18T03:37:30;98773.06;;;-9.85;100.00
54918;BME280;40818;50.562;7.454;2022-12-18T03:47:41;98762.38;;;-9.80;100.00
54918;BME280;40818;50.562;7.454;2022-12-18T03:57:49;98762.09;;;-9.89;100.00
54918;BME280;40818;50.562;7.454;2022-12-18T04:07:57;98746.66;;;-9.74;100.00
54918;BME280;40818;50.562;7.454;2022-12-18T04:18:02;98736.03;;;-9.65;100.00
54918;BME280;40818;50.562;7.454;2022-12-18T04:28:15;98748.75;;;-9.59;100.00
54918;BME280;40818;50.562;7.454;2022-12-18T04:38:19;98741.66;;;-9.72;100.00
54918;BME280;40818;50.562;7.454;2022-12-18T04:48:34;98736.53;;;-9.75;100.00
54918;BME280;40818;50.562;7.454;2022-12-18T04:58:39;98736.34;;;-9.54;100.00
54918;BME280;40818;50.562;7.454;2022-12-18T05:08:45;98731.59;;;-9.45;100.00
54918;BME280;40818;50.562;7.454;2022-12-18T05:18:49;98731.72;;;-9.42;100.00
54918;BME280;40818;50.562;7.454;2022-12-18T05:28:55;98729.19;;;-9.42;100.00
54918;BME280;40818;50.562;7.454;2022-12-18T05:38:58;98723.31;;;-9.41;100.00
54918;BME280;40818;50.562;7.454;2022-12-18T05:49:05;98715.75;;;-9.43;100.00
54918;BME280;40818;50.562;7.454;2022-12-18T05:59:08;98721.19;;;-9.29;100.00
54918;BME280;40818;50.562;7.454;2022-12-18T06:09:14;98738.06;;;-9.24;100.00
54918;BME280;40818;50.562;7.454;2022-12-18T06:19:18;98756.34;;;-9.30;100.00
54918;BME280;40818;50.562;7.454;2022-12-18T06:29:24;98761.63;;;-9.22;100.00
54918;BME280;40818;50.562;7.454;2022-12-18T06:39:28;98770.78;;;-9.24;100.00
54918;BME280;40818;50.562;7.454;2022-12-18T06:49:34;98779.75;;;-9.33;100.00
54918;BME280;40818;50.562;7.454;2022-12-18T06:59:38;98768.56;;;-9.43;100.00
54918;BME280;40818;50.562;7.454;2022-12-18T07:09:44;98756.56;;;-9.51;100.00
54918;BME280;40818;50.562;7.454;2022-12-18T07:19:47;98752.41;;;-9.49;100.00
54918;BME280;40818;50.562;7.454;2022-12-18T07:29:53;98776.34;;;-9.35;100.00
54918;BME280;40818;50.562;7.454;2022-12-18T07:39:57;98789.72;;;-9.36;100.00
54918;BME280;40818;50.562;7.454;2022-12-18T07:50:05;98778.19;;;-9.29;100.00
54918;BME280;40818;50.562;7.454;2022-12-18T08:00:09;98767.31;;;-8.99;100.00
54918;BME280;40818;50.562;7.454;2022-12-18T08:10:16;98785.72;;;-8.40;100.00
54918;BME280;40818;50.562;7.454;2022-12-18T08:20:20;98747.50;;;-8.25;100.00
54918;BME280;40818;50.562;7.454;2022-12-18T08:30:26;98729.59;;;-8.02;100.00
54918;BME280;40818;50.562;7.454;2022-12-18T08:40:29;98729.22;;;-7.82;100.00
54918;BME280;40818;50.562;7.454;2022-12-18T08:50:36;98746.47;;;-7.63;100.00
54918;BME280;40818;50.562;7.454;2022-12-18T09:00:39;98746.44;;;-7.64;100.00
54918;BME280;40818;50.562;7.454;2022-12-18T09:10:46;98737.34;;;-7.58;100.00
54918;BME280;40818;50.562;7.454;2022-12-18T09:20:50;98736.91;;;-7.40;100.00
54918;BME280;40818;50.562;7.454;2022-12-18T09:30:56;98759.22;;;-7.20;100.00
54918;BME280;40818;50.562;7.454;2022-12-18T09:41:05;98734.13;;;-7.14;100.00
54918;BME280;40818;50.562;7.454;2022-12-18T09:51:17;98719.78;;;-6.72;100.00
54918;BME280;40818;50.562;7.454;2022-12-18T10:01:22;98716.94;;;-6.45;100.00
54918;BME280;40818;50.562;7.454;2022-12-18T10:11:40;98716.22;;;-6.38;100.00
54918;BME280;40818;50.562;7.454;2022-12-18T10:21:52;98694.38;;;-6.37;100.00
54918;BME280;40818;50.562;7.454;2022-12-18T10:32:00;98697.97;;;-6.23;100.00
54918;BME280;40818;50.562;7.454;2022-12-18T10:42:10;98690.84;;;-5.93;100.00
54918;BME280;40818;50.562;7.454;2022-12-18T10:52:18;98674.44;;;-5.62;100.00
54918;BME280;40818;50.562;7.454;2022-12-18T11:02:27;98660.44;;;-5.38;100.00
54918;BME280;40818;50.562;7.454;2022-12-18T11:12:35;98669.53;;;-5.51;100.00
54918;BME280;40818;50.562;7.454;2022-12-18T11:22:39;98686.75;;;-5.25;100.00
54918;BME280;40818;50.562;7.454;2022-12-18T11:32:47;98674.66;;;-5.46;100.00
54918;BME280;40818;50.562;7.454;2022-12-18T11:42:55;98672.53;;;-5.78;100.00
54918;BME280;40818;50.562;7.454;2022-12-18T11:53:04;98666.44;;;-5.91;100.00
54918;BME280;40818;50.562;7.454;2022-12-18T12:13:49;98647.66;;;-6.07;100.00
54918;BME280;40818;50.562;7.454;2022-12-18T12:24:01;98640.81;;;-6.14;100.00
54918;BME280;40818;50.562;7.454;2022-12-18T12:34:17;98634.72;;;-6.27;100.00
54918;BME280;40818;50.562;7.454;2022-12-18T12:44:26;98610.25;;;-6.28;100.00
54918;BME280;40818;50.562;7.454;2022-12-18T12:54:34;98601.13;;;-6.20;100.00
54918;BME280;40818;50.562;7.454;2022-12-18T13:04:42;98580.16;;;-6.14;100.00
54918;BME280;40818;50.562;7.454;2022-12-18T13:14:51;98583.72;;;-6.00;100.00
54918;BME280;40818;50.562;7.454;2022-12-18T13:24:54;98585.47;;;-5.93;100.00
54918;BME280;40818;50.562;7.454;2022-12-18T13:45:41;98571.09;;;-5.98;100.00
54918;BME280;40818;50.562;7.454;2022-12-18T13:55:45;98580.22;;;-6.08;100.00
54918;BME280;40818;50.562;7.454;2022-12-18T14:05:57;98584.41;;;-6.12;100.00
54918;BME280;40818;50.562;7.454;2022-12-18T14:16:04;98586.72;;;-6.26;100.00
54918;BME280;40818;50.562;7.454;2022-12-18T14:26:23;98573.91;;;-6.37;100.00
54918;BME280;40818;50.562;7.454;2022-12-18T14:36:29;98571.34;;;-6.40;100.00
54918;BME280;40818;50.562;7.454;2022-12-18T14:46:37;98574.44;;;-6.56;100.00
54918;BME280;40818;50.562;7.454;2022-12-18T14:56:44;98554.72;;;-6.77;100.00
54918;BME280;40818;50.562;7.454;2022-12-18T15:07:03;98570.38;;;-6.97;100.00
54918;BME280;40818;50.562;7.454;2022-12-18T15:17:16;98556.66;;;-7.10;100.00
54918;BME280;40818;50.562;7.454;2022-12-18T15:27:26;98548.19;;;-7.13;100.00
54918;BME280;40818;50.562;7.454;2022-12-18T15:37:30;98554.88;;;-7.15;100.00
54918;BME280;40818;50.562;7.454;2022-12-18T15:47:36;98567.66;;;-7.08;100.00
54918;BME280;40818;50.562;7.454;2022-12-18T15:57:39;98561.78;;;-7.08;100.00
54918;BME280;40818;50.562;7.454;2022-12-18T16:07:46;98566.75;;;-7.11;100.00
54918;BME280;40818;50.562;7.454;2022-12-18T16:17:49;98565.91;;;-7.10;100.00
54918;BME280;40818;50.562;7.454;2022-12-18T16:27:56;98538.09;;;-7.13;100.00
54918;BME280;40818;50.562;7.454;2022-12-18T16:37:59;98527.19;;;-7.14;100.00
54918;BME280;40818;50.562;7.454;2022-12-18T16:48:06;98539.91;;;-7.06;100.00
54918;BME280;40818;50.562;7.454;2022-12-18T16:58:10;98539.09;;;-7.05;100.00
54918;BME280;40818;50.562;7.454;2022-12-18T17:08:16;98534.06;;;-7.05;100.00
54918;BME280;40818;50.562;7.454;2022-12-18T17:18:19;98530.72;;;-7.03;100.00
54918;BME280;40818;50.562;7.454;2022-12-18T17:28:27;98521.53;;;-6.99;100.00
54918;BME280;40818;50.562;7.454;2022-12-18T17:38:30;98535.13;;;-6.91;100.00
54918;BME280;40818;50.562;7.454;2022-12-18T17:48:37;98532.63;;;-6.89;100.00
54918;BME280;40818;50.562;7.454;2022-12-18T17:58:41;98526.75;;;-6.90;100.00
54918;BME280;40818;50.562;7.454;2022-12-18T18:08:48;98506.59;;;-6.87;100.00
54918;BME280;40818;50.562;7.454;2022-12-18T18:18:51;98513.34;;;-6.86;100.00
54918;BME280;40818;50.562;7.454;2022-12-18T18:28:58;98485.69;;;-6.78;100.00
54918;BME280;40818;50.562;7.454;2022-12-18T18:39:01;98457.84;;;-6.81;100.00
54918;BME280;40818;50.562;7.454;2022-12-18T18:49:08;98461.47;;;-6.66;100.00
54918;BME280;40818;50.562;7.454;2022-12-18T18:59:13;98472.66;;;-6.49;100.00
54918;BME280;40818;50.562;7.454;2022-12-18T19:09:19;98472.81;;;-6.37;100.00
54918;BME280;40818;50.562;7.454;2022-12-18T19:19:23;98455.28;;;-6.26;100.00
54918;BME280;40818;50.562;7.454;2022-12-18T19:29:29;98447.13;;;-6.06;100.00
54918;BME280;40818;50.562;7.454;2022-12-18T19:39:32;98461.53;;;-5.94;100.00
54918;BME280;40818;50.562;7.454;2022-12-18T19:49:38;98444.00;;;-5.82;100.00
54918;BME280;40818;50.562;7.454;2022-12-18T19:59:42;98451.69;;;-5.74;100.00
54918;BME280;40818;50.562;7.454;2022-12-18T20:09:48;98449.22;;;-5.65;100.00
54918;BME280;40818;50.562;7.454;2022-12-18T20:19:52;98441.72;;;-5.60;100.00
54918;BME280;40818;50.562;7.454;2022-12-18T20:29:58;98430.03;;;-5.47;100.00
54918;BME280;40818;50.562;7.454;2022-12-18T20:40:01;98443.59;;;-5.39;100.00
54918;BME280;40818;50.562;7.454;2022-12-18T20:50:08;98449.63;;;-5.26;100.00
54918;BME280;40818;50.562;7.454;2022-12-18T21:00:13;98434.53;;;-5.19;100.00
54918;BME280;40818;50.562;7.454;2022-12-18T21:10:19;98448.91;;;-5.13;100.00
54918;BME280;40818;50.562;7.454;2022-12-18T21:20:23;98465.88;;;-5.03;100.00
54918;BME280;40818;50.562;7.454;2022-12-18T21:30:29;98440.63;;;-4.95;100.00
54918;BME280;40818;50.562;7.454;2022-12-18T21:40:32;98444.06;;;-4.87;100.00
54918;BME280;40818;50.562;7.454;2022-12-18T21:50:38;98434.03;;;-4.76;100.00
54918;BME280;40818;50.562;7.454;2022-12-18T22:00:42;98446.72;;;-4.68;100.00
54918;BME280;40818;50.562;7.454;2022-12-18T22:10:48;98445.06;;;-4.66;100.00
54918;BME280;40818;50.562;7.454;2022-12-18T22:20:59;98422.28;;;-4.63;100.00
54918;BME280;40818;50.562;7.454;2022-12-18T22:31:06;98416.41;;;-4.56;100.00
54918;BME280;40818;50.562;7.454;2022-12-18T22:41:09;98404.69;;;-4.35;100.00
54918;BME280;40818;50.562;7.454;2022-12-18T22:51:17;98406.41;;;-4.30;100.00
54918;BME280;40818;50.562;7.454;2022-12-18T23:01:23;98392.03;;;-4.31;100.00
54918;BME280;40818;50.562;7.454;2022-12-18T23:11:29;98389.53;;;-4.23;100.00
54918;BME280;40818;50.562;7.454;2022-12-18T23:21:33;98386.13;;;-4.26;100.00
54918;BME280;40818;50.562;7.454;2022-12-18T23:31:39;98375.16;;;-4.24;100.00
54918;BME280;40818;50.562;7.454;2022-12-18T23:41:43;98374.38;;;-4.03;100.00
54918;BME280;40818;50.562;7.454;2022-12-18T23:51:49;98354.97;;;-3.91;100.00
